Flight Track Log - Related Links

Times and Time Zones

All times are in EDT time to prevent confusion due to time zone crossing. See the N678DF flight status page for this flight to view local times or setup timezone preferences in your user account.

Time Position Orientation Groundspeed Altitude Reporting Facility
EDT Latitude Longitude Course Direction KTS MPH feet Rate Location/Type
Sun 06:37:48 PM 41.9981 -93.6519 66° East 160 184 2,100  Level Minneapolis Center
Sun 06:39:01 PM 41.9786 -93.5978 116° Southeast 155 178 3,200 723 Climbing Minneapolis Center
Sun 06:40:09 PM 41.9939 -93.5453 69° East 155 178 3,800 893 Climbing Minneapolis Center
Sun 06:41:02 PM 42.0217 -93.5039 48° Northeast 141 162 5,000 629 Climbing Minneapolis Center
Sun 06:42:13 PM 42.0389 -93.4564 64° Northeast 149 171 5,100 45 Climbing Minneapolis Center
Sun 06:43:00 PM 42.0384 -93.4516 66° East  Level FlightAware Approximate
Sun 06:43:15 PM 42.0606 -93.3944 65° Northeast 156 180 5,100  Level Minneapolis Center
Sun 06:44:17 PM 42.0758 -93.3300 72° East 167 192 5,100 -48 Level Minneapolis Center
Sun 06:45:19 PM 42.0939 -93.2711 68° East 169 194 5,000 -49 Descending Minneapolis Center
Sun 06:46:20 PM 42.1122 -93.2111 68° East 171 197 5,000  Level Minneapolis Center
Sun 06:47:22 PM 42.1294 -93.1472 70° East 172 198 5,000 387 Level Minneapolis Center
Sun 06:48:24 PM 42.1461 -93.0842 70° East 167 192 5,800 774 Climbing Minneapolis Center
Sun 06:49:26 PM 42.1633 -93.0264 68° East 156 180 6,600 581 Climbing Minneapolis Center
Sun 06:50:28 PM 42.1808 -92.9714 67° East 158 182 7,000 194 Climbing Minneapolis Center
Sun 06:51:30 PM 42.1972 -92.9053 71° East 172 198 7,000  Level Minneapolis Center
Sun 06:52:32 PM 42.2111 -92.8561 69° East 166 191 7,000  Level Minneapolis Center
Sun 06:53:34 PM 42.2297 -92.7986 66° East 166 191 7,000  Level Minneapolis Center
Sun 06:54:36 PM 42.2489 -92.7250 71° East 171 197 7,000  Level Minneapolis Center
Sun 06:55:38 PM 42.2653 -92.6644 70° East 172 198 7,000  Level Minneapolis Center
Sun 06:56:40 PM 42.2817 -92.6072 69° East 169 194 7,000  Level Minneapolis Center
Sun 06:57:42 PM 42.2975 -92.5500 69° East 167 192 7,000  Level Minneapolis Center
Sun 06:58:44 PM 42.3142 -92.4933 68° East 166 191 7,000  Level Minneapolis Center
Sun 06:59:46 PM 42.3333 -92.4222 70° East 167 192 7,000  Level Minneapolis Center
Sun 07:00:48 PM 42.3497 -92.3644 69° East 167 192 7,000  Level Minneapolis Center
Sun 07:01:50 PM 42.3661 -92.3042 70° East 169 194 7,000  Level Minneapolis Center
Sun 07:02:52 PM 42.3828 -92.2453 69° East 170 196 7,000  Level Minneapolis Center
Sun 07:04:55 PM 42.4147 -92.1250 70° East 169 194 7,000  Level Chicago Center
Sun 07:05:57 PM 42.4336 -92.0550 70° East 167 192 7,000  Level Chicago Center
Sun 07:06:59 PM 42.4506 -91.9975 68° East 167 192 7,000  Level Chicago Center
Sun 07:08:01 PM 42.4656 -91.9389 71° East 166 191 7,000  Level Chicago Center
Sun 07:09:03 PM 42.4825 -91.8794 69° East 168 193 7,000  Level Chicago Center
Sun 07:10:05 PM 42.5019 -91.8092 69° East 168 193 7,000  Level Chicago Center
Sun 07:11:07 PM 42.5172 -91.7517 70° East 167 192 7,000  Level Chicago Center
Sun 07:12:09 PM 42.5342 -91.6925 69° East 168 193 7,000  Level Chicago Center
Sun 07:13:11 PM 42.5503 -91.6342 69° East 169 194 7,000  Level Chicago Center
Sun 07:14:13 PM 42.5656 -91.5767 70° East 167 192 7,000  Level Chicago Center
Sun 07:15:15 PM 42.5839 -91.5064 70° East 167 192 7,000  Level Chicago Center
Sun 07:16:17 PM 42.6000 -91.4497 69° East 165 190 7,000  Level Chicago Center
Sun 07:17:19 PM 42.6158 -91.3917 70° East 166 191 7,000  Level Chicago Center
Sun 07:18:21 PM 42.6306 -91.3325 71° East 167 192 7,000  Level Chicago Center
Sun 07:19:23 PM 42.6492 -91.2608 71° East 168 193 7,000  Level Chicago Center
Sun 07:20:25 PM 42.6647 -91.2044 69° East 166 191 7,000  Level Chicago Center
Sun 07:21:26 PM 42.6797 -91.1497 70° East 161 185 7,000  Level Chicago Center
Sun 07:22:28 PM 42.6936 -91.0964 70° East 156 180 7,000 48 Level Chicago Center
Sun 07:23:30 PM 42.7075 -91.0419 71° East 154 177 7,100  Climbing Chicago Center
Sun 07:24:32 PM 42.7272 -90.9681 70° East 165 190 7,000 -48 Descending Chicago Center
Sun 07:25:34 PM 42.7431 -90.9078 70° East 169 194 7,000  Level Chicago Center
Sun 07:26:36 PM 42.7592 -90.8467 70° East 172 198 7,000 48 Level Chicago Center
Sun 07:27:38 PM 42.7747 -90.7864 71° East 172 198 7,100  Climbing Chicago Center
Sun 07:28:40 PM 42.7903 -90.7236 71° East 175 201 7,000 -49 Descending Chicago Center
Sun 07:29:41 PM 42.8072 -90.6611 70° East 178 205 7,000  Level Chicago Center
Sun 07:30:43 PM 42.8258 -90.5897 70° East 170 196 7,000 48 Level Chicago Center
Sun 07:31:45 PM 42.8414 -90.5300 70° East 170 196 7,100  Climbing Chicago Center
Sun 07:32:47 PM 42.8561 -90.4711 71° East 166 191 7,000 -48 Descending Chicago Center
Sun 07:33:49 PM 42.8719 -90.4103 70° East 170 196 7,000  Level Chicago Center
Sun 07:34:51 PM 42.8872 -90.3489 71° East 172 198 7,000  Level Chicago Center
Sun 07:35:53 PM 42.9056 -90.2761 71° East 172 198 7,000  Level Chicago Center
Sun 07:36:55 PM 42.9208 -90.2181 70° East 166 191 7,000  Level Chicago Center
Sun 07:37:57 PM 42.9367 -90.1606 69° East 164 189 7,000 -145 Level Chicago Center
Sun 07:38:59 PM 42.9503 -90.0975 74° East 172 198 6,700 -387 Descending Chicago Center
Sun 07:40:01 PM 42.9678 -90.0317 70° East 183 211 6,200 -629 Descending Chicago Center
Sun 07:41:03 PM 42.9861 -89.9542 72° East 181 208 5,400 -726 Descending Chicago Center
Sun 07:42:05 PM 43.0053 -89.8828 70° East 184 212 4,700 -581 Descending Chicago Center
Sun 07:43:07 PM 43.0197 -89.8172 73° East 181 208 4,200 -290 Descending Chicago Center
Sun 07:44:09 PM 43.0283 -89.7564 79° East 169 194 4,100 -48 Descending Chicago Center
Sun 07:45:11 PM 43.0211 -89.6922 99° East 167 192 4,100  Level Chicago Center
Sun 07:46:13 PM 43.0161 -89.6283 96° East 169 194 4,100  Level Chicago Center
Sun 07:47:15 PM 43.0117 -89.5661 96° East 167 192 4,100 -48 Level Chicago Center
Sun 07:48:17 PM 43.0078 -89.4917 94° East 168 193 4,000 -48 Descending Chicago Center
Sun 07:49:19 PM 43.0033 -89.4314 96° East 164 189 4,000 48 Level Chicago Center
Sun 07:50:21 PM 43.0003 -89.3742 94° East 158 182 4,100 -290 Climbing Chicago Center
Sun 07:51:23 PM 42.9961 -89.3142 95° East 157 181 3,400 -726 Descending Chicago Center
Sun 07:52:25 PM 43.0314 -89.3131 North 150 173 2,600 -532 Descending Chicago Center
Sun 07:53:27 PM 43.0669 -89.3250 346° North 137 158 2,300 -194 Descending Chicago Center
Sun 07:54:29 PM 43.1050 -89.3017 24° Northeast 138 159 2,200 -387 Descending Chicago Center
Sun 07:55:31 PM 43.1231 -89.3106 340° North 103 119 1,500 -432 Descending Chicago Center
Sun 07:56:34 PM 43.1403 -89.3317 318° Northwest 93 107 1,300 -190 Descending Chicago Center

Login

Don't have an account? Register now (free) for customized features, flight alerts, and more!